Time;durP1;ratioP1;P1;durP2;ratioP2;P2;SDS_P1;SDS_P2;PMS_P1;PMS_P2;Temp;Humidity;BMP_temperature;BMP_pressure;BME280_temperature;BME280_humidity;BME280_pressure;Samples;Min_cycle;Max_cycle;Signal;HPM_P1;HPM_P2
2022/04/03 10:16:12;;;;;;;;;3.75;3.75;;;;;11.41;38.55;101903.38;5952005;23;45204;-59
2022/04/03 10:18:39;;;;;;;;;3.00;3.00;;;;;11.54;38.30;101906.91;5017445;28;45356;-58
2022/04/03 10:21:08;;;;;;;;;5.00;4.25;;;;;11.64;37.96;101902.50;5007350;28;45409;-58
2022/04/03 10:23:37;;;;;;;;;6.75;4.25;;;;;11.76;37.52;101906.88;5017058;28;45439;-57
2022/04/03 10:26:05;;;;;;;;;5.50;5.00;;;;;11.83;37.64;101904.25;5011924;28;45259;-59
2022/04/03 10:28:31;;;;;;;;;4.75;4.75;;;;;11.95;37.48;101905.09;4999758;28;46012;-59
2022/04/03 10:30:59;;;;;;;;;5.00;4.75;;;;;12.00;37.39;101893.72;4998481;28;45370;-59
2022/04/03 10:33:24;;;;;;;;;6.00;5.00;;;;;12.15;37.21;101900.72;4998834;28;45492;-61
2022/04/03 10:36:06;;;;;;;;;5.50;4.75;;;;;12.29;37.11;101908.59;5000022;28;45305;-59
2022/04/03 10:39:11;;;;;;;;;3.50;2.75;;;;;12.53;37.19;101904.13;5000030;28;45258;-58
2022/04/03 10:41:40;;;;;;;;;4.00;4.00;;;;;12.79;37.02;101905.75;4971193;28;45340;-60
2022/04/03 10:44:25;;;;;;;;;7.00;5.75;;;;;13.12;37.26;101901.22;4999914;28;45318;-61
2022/04/03 10:47:05;;;;;;;;;7.25;5.25;;;;;13.47;37.48;101895.69;4998615;28;45528;-61
2022/04/03 10:49:39;;;;;;;;;5.00;5.00;;;;;13.79;37.04;101893.69;4999647;28;45965;-64
2022/04/03 10:52:09;;;;;;;;;4.00;4.00;;;;;14.12;36.79;101900.41;5002022;28;46543;-62
2022/04/03 10:54:53;;;;;;;;;7.00;5.75;;;;;14.46;37.01;101904.41;5011481;28;45444;-62
2022/04/03 10:57:40;;;;;;;;;4.25;4.00;;;;;14.86;37.26;101882.78;4999605;28;45397;-42
2022/04/03 11:00:14;;;;;;;;;3.75;3.75;;;;;15.24;37.02;101881.34;4990628;28;45405;-42
2022/04/03 11:02:41;;;;;;;;;3.00;3.00;;;;;15.64;36.76;101878.94;4999141;28;45330;-69
2022/04/03 11:05:22;;;;;;;;;4.50;4.50;;;;;16.11;36.89;101874.56;4999394;28;45336;-70
2022/04/03 11:08:15;;;;;;;;;4.50;4.00;;;;;16.54;36.83;101872.81;5000301;28;45606;-71
2022/04/03 11:10:48;;;;;;;;;3.00;3.00;;;;;17.06;36.42;101878.78;5002473;28;45258;-71
2022/04/03 11:13:15;;;;;;;;;4.00;4.00;;;;;17.49;36.16;101877.75;4999159;28;45265;-70
2022/04/03 11:15:51;;;;;;;;;4.25;3.50;;;;;17.93;35.90;101866.84;4999153;28;45372;-65
2022/04/03 11:18:37;;;;;;;;;0.75;0.75;;;;;18.37;35.96;101869.22;4999224;28;45305;-72
2022/04/03 11:21:11;;;;;;;;;3.75;3.75;;;;;18.85;35.89;101865.13;4987631;28;46374;-63
2022/04/03 11:23:40;;;;;;;;;7.50;7.50;;;;;19.28;35.37;101854.91;4999304;28;45345;-63
2022/04/03 11:26:06;;;;;;;;;3.75;3.75;;;;;19.67;35.26;101856.28;4999086;28;45547;-62
2022/04/03 11:28:36;;;;;;;;;5.00;5.00;;;;;20.02;34.75;101860.38;4999149;28;45415;-63
2022/04/03 11:31:03;;;;;;;;;6.50;5.50;;;;;20.27;34.58;101856.81;4998971;28;46204;-63
2022/04/03 11:33:30;;;;;;;;;2.75;2.75;;;;;20.51;34.58;101856.84;5002023;28;45483;-59
2022/04/03 11:36:26;;;;;;;;;5.00;5.00;;;;;20.70;34.30;101847.16;5002784;28;45402;-62
2022/04/03 11:38:52;;;;;;;;;5.00;5.00;;;;;20.86;34.10;101836.78;4987877;28;45793;-61
2022/04/03 11:41:22;;;;;;;;;5.00;5.00;;;;;21.01;33.89;101837.09;5002329;28;46145;-62
2022/04/03 11:44:00;;;;;;;;;2.50;2.50;;;;;21.18;33.76;101837.28;5002479;28;45372;-63
2022/04/03 11:46:27;;;;;;;;;5.00;4.00;;;;;21.33;33.78;101832.22;5002640;28;45321;-62
2022/04/03 11:48:53;;;;;;;;;4.25;4.00;;;;;21.51;33.00;101836.78;5001954;28;45541;-62
2022/04/03 11:51:20;;;;;;;;;3.75;3.00;;;;;21.72;33.21;101832.34;5000807;28;45378;-62
2022/04/03 11:54:00;;;;;;;;;4.00;4.00;;;;;21.98;32.59;101827.63;5002618;28;45282;-62
2022/04/03 11:56:31;;;;;;;;;3.50;3.25;;;;;22.28;32.70;101832.50;5001064;28;45355;-62
2022/04/03 11:58:58;;;;;;;;;5.25;4.00;;;;;22.52;32.76;101826.97;5002191;28;45171;-62
2022/04/03 12:01:28;;;;;;;;;5.00;4.00;;;;;22.79;32.87;101830.16;5002271;28;46314;-62
2022/04/03 12:04:08;;;;;;;;;5.00;4.00;;;;;23.00;32.46;101830.03;5000892;28;45224;-62
2022/04/03 12:06:34;;;;;;;;;4.00;4.00;;;;;23.14;31.97;101824.81;5001160;28;45216;-70
2022/04/03 12:09:05;;;;;;;;;5.50;3.50;;;;;23.26;32.37;101818.03;5002057;28;45529;-63
2022/04/03 12:11:30;;;;;;;;;5.00;5.00;;;;;23.39;31.87;101809.38;5002258;28;46862;-62
2022/04/03 12:13:58;;;;;;;;;5.00;5.00;;;;;23.54;31.63;101819.28;5001928;28;45164;-61
2022/04/03 12:16:25;;;;;;;;;5.00;4.75;;;;;23.73;31.36;101810.28;5002278;28;45233;-61
2022/04/03 12:18:55;;;;;;;;;5.00;4.25;;;;;23.90;31.67;101815.63;5002126;28;45408;-61
2022/04/03 12:21:48;;;;;;;;;5.00;5.00;;;;;24.10;31.19;101803.84;5001865;28;46271;-65
2022/04/03 12:24:18;;;;;;;;;5.00;5.00;;;;;24.32;31.14;101821.44;4989893;28;45322;-65
2022/04/03 12:26:58;;;;;;;;;5.25;5.00;;;;;24.43;31.17;101802.06;5001743;28;45631;-65
2022/04/03 12:29:27;;;;;;;;;5.75;3.50;;;;;24.63;30.75;101815.22;5001534;28;45337;-65
2022/04/03 12:31:58;;;;;;;;;3.75;3.75;;;;;24.73;30.78;101810.22;5000458;28;46373;-65
2022/04/03 12:34:25;;;;;;;;;4.75;4.00;;;;;24.76;30.25;101812.72;5001952;28;45285;-65
2022/04/03 12:36:53;;;;;;;;;4.50;4.00;;;;;24.82;30.14;101811.50;5001874;28;45321;-65
2022/04/03 12:39:44;;;;;;;;;4.00;4.00;;;;;24.86;29.97;101812.19;5001857;28;45283;-66
2022/04/03 12:42:36;;;;;;;;;5.50;4.25;;;;;24.87;29.93;101812.09;4990801;28;46331;-65
2022/04/03 12:45:23;;;;;;;;;3.50;3.50;;;;;24.87;29.38;101821.97;5001324;28;45298;-65
2022/04/03 12:47:54;;;;;;;;;6.00;6.00;;;;;24.82;29.44;101806.13;5001849;28;45463;-67
2022/04/03 12:50:23;;;;;;;;;3.50;3.50;;;;;24.78;29.33;101805.44;5001683;28;45690;-66
2022/04/03 12:52:48;;;;;;;;;5.00;5.00;;;;;24.73;29.21;101806.63;5000285;28;47213;-66
2022/04/03 12:55:32;;;;;;;;;5.25;5.25;;;;;24.66;29.27;101811.50;5001379;28;45328;-66
2022/04/03 13:00:58;;;;;;;;;2.50;2.50;;;;;24.51;29.08;101813.22;5001231;28;45233;-65
2022/04/03 13:03:29;;;;;;;;;6.25;4.25;;;;;24.42;28.30;101803.84;5001165;28;45561;-65
2022/04/03 13:06:00;;;;;;;;;5.75;5.75;;;;;24.36;28.55;101797.97;5001228;28;46471;-66
2022/04/03 13:08:39;;;;;;;;;4.50;4.50;;;;;24.31;28.26;101807.16;5001571;28;45400;-67
2022/04/03 13:11:05;;;;;;;;;4.25;4.00;;;;;24.20;28.62;101800.63;4999983;28;45295;-66
2022/04/03 13:13:34;;;;;;;;;5.25;5.25;;;;;24.11;28.19;101802.88;5001118;28;45214;-66
2022/04/03 13:16:00;;;;;;;;;5.75;5.25;;;;;24.04;28.12;101798.78;5001692;28;45543;-66
2022/04/03 13:18:25;;;;;;;;;5.75;5.00;;;;;23.99;28.04;101804.41;5001202;28;45367;-67
2022/04/03 13:20:55;;;;;;;;;4.00;4.00;;;;;23.91;28.29;101795.91;5009262;28;45437;-67
2022/04/03 13:23:23;;;;;;;;;5.00;4.00;;;;;23.79;28.30;101800.06;4996041;28;46027;-66
2022/04/03 13:25:49;;;;;;;;;5.25;5.25;;;;;23.59;28.11;101794.91;5000949;28;45325;-66
2022/04/03 13:28:17;;;;;;;;;4.50;3.50;;;;;23.30;27.86;101803.50;5000860;28;45543;-66
2022/04/03 13:30:42;;;;;;;;;4.75;4.75;;;;;22.95;28.15;101792.72;5001009;28;45465;-65
2022/04/03 13:33:08;;;;;;;;;5.25;4.25;;;;;22.72;27.97;101793.88;4999630;28;47233;-66
2022/04/03 13:35:37;;;;;;;;;7.00;4.00;;;;;22.49;28.07;101803.00;5001121;28;45270;-66
2022/04/03 13:38:07;;;;;;;;;5.50;5.50;;;;;22.28;27.70;101799.53;5001147;28;45178;-67
2022/04/03 13:40:33;;;;;;;;;4.75;4.75;;;;;22.08;27.78;101783.44;5000759;28;45488;-66
2022/04/03 13:43:00;;;;;;;;;6.25;6.25;;;;;21.90;27.25;101786.97;4999527;28;48505;-66
2022/04/03 13:45:56;;;;;;;;;5.25;5.25;;;;;21.72;27.79;101788.66;4999452;28;45716;-66
2022/04/03 13:48:10;;;;;;;;;7.00;5.00;;;;;21.47;27.56;101789.72;5000757;28;46488;-66
2022/04/03 13:50:36;;;;;;;;;5.25;5.25;;;;;21.25;27.41;101792.44;5000758;28;45260;-66
2022/04/03 13:53:02;;;;;;;;;3.25;3.00;;;;;21.05;27.65;101786.13;4999304;28;48157;-65
2022/04/03 13:55:28;;;;;;;;;10.25;6.00;;;;;20.88;27.52;101777.94;4999779;28;45377;-66
2022/04/03 13:57:53;;;;;;;;;6.75;6.00;;;;;20.70;27.66;101782.19;5000753;28;45237;-66
2022/04/03 14:00:20;;;;;;;;;4.00;3.75;;;;;20.56;27.89;101774.75;4999415;28;45505;-66
2022/04/03 14:02:46;;;;;;;;;3.50;3.00;;;;;20.40;27.46;101783.38;5000393;28;46142;-66
2022/04/03 14:05:11;;;;;;;;;6.25;4.50;;;;;20.26;27.41;101775.00;5000636;28;45297;-66
2022/04/03 14:07:37;;;;;;;;;5.00;5.00;;;;;20.14;27.76;101773.69;5000696;28;45390;-66
2022/04/03 14:10:03;;;;;;;;;6.00;6.00;;;;;20.08;27.78;101774.78;5000472;28;46675;-66
2022/04/03 14:12:28;;;;;;;;;4.00;4.00;;;;;20.00;27.73;101763.56;5000466;28;46087;-66
2022/04/03 14:14:54;;;;;;;;;6.50;5.25;;;;;19.88;28.02;101746.19;5000318;28;45263;-66
2022/04/03 14:17:19;;;;;;;;;5.50;5.50;;;;;19.91;27.33;101755.88;5000415;28;45419;-66
2022/04/03 14:19:44;;;;;;;;;6.00;5.50;;;;;19.98;27.63;101768.06;5000463;28;45230;-67
2022/04/03 14:22:10;;;;;;;;;6.75;5.00;;;;;20.03;27.58;101763.44;5000304;28;46524;-66
2022/04/03 14:24:36;;;;;;;;;5.25;5.25;;;;;20.10;28.00;101756.94;5000378;28;45234;-67
2022/04/03 14:27:02;;;;;;;;;7.50;6.00;;;;;20.20;27.57;101760.13;5000275;28;45281;-67
2022/04/03 14:29:28;;;;;;;;;6.75;6.75;;;;;20.28;27.68;101763.34;4998734;28;45244;-67
2022/04/03 14:31:54;;;;;;;;;8.00;6.00;;;;;20.32;28.00;101769.44;5000105;28;45168;-66
2022/04/03 14:34:19;;;;;;;;;9.25;6.50;;;;;20.25;27.55;101758.16;5000263;28;45434;-65
2022/04/03 14:36:45;;;;;;;;;8.75;7.00;;;;;20.11;27.61;101741.78;4998945;28;45383;-66
2022/04/03 14:39:10;;;;;;;;;5.75;5.75;;;;;20.04;27.73;101746.50;5000256;28;45536;-65
2022/04/03 14:41:36;;;;;;;;;8.00;8.00;;;;;19.94;27.62;101753.97;4998617;28;47692;-66
2022/04/03 14:44:02;;;;;;;;;6.75;5.50;;;;;19.73;27.86;101726.25;5000069;28;45413;-65
2022/04/03 14:46:28;;;;;;;;;6.00;6.00;;;;;19.65;27.15;101731.88;5000119;28;45329;-65
2022/04/03 14:48:53;;;;;;;;;9.75;6.25;;;;;19.56;27.75;101747.34;5000080;28;45543;-65
2022/04/03 14:51:21;;;;;;;;;10.00;7.50;;;;;19.40;27.81;101739.91;4999894;28;46518;-65
2022/04/03 14:53:47;;;;;;;;;7.75;6.00;;;;;19.25;27.57;101741.31;5000171;28;45187;-65
2022/04/03 14:56:14;;;;;;;;;7.25;6.50;;;;;19.09;27.47;101738.28;4999538;28;45407;-64
2022/04/03 14:58:40;;;;;;;;;8.50;7.75;;;;;18.95;27.58;101743.22;4999830;28;45484;-65
2022/04/03 15:01:05;;;;;;;;;7.25;6.25;;;;;18.80;27.43;101736.59;4999614;28;46052;-65
2022/04/03 15:03:30;;;;;;;;;7.00;6.00;;;;;18.73;27.56;101735.94;4999852;28;45250;-65
2022/04/03 15:05:56;;;;;;;;;8.00;6.25;;;;;18.62;27.40;101722.97;5000686;28;45475;-66
2022/04/03 15:08:22;;;;;;;;;7.00;7.00;;;;;18.61;27.15;101742.50;5003456;28;45362;-65
2022/04/03 15:10:47;;;;;;;;;7.00;6.00;;;;;18.56;27.16;101738.25;5003076;28;45250;-66
2022/04/03 15:13:13;;;;;;;;;8.00;7.00;;;;;18.47;27.60;101739.44;5003373;28;45433;-65
2022/04/03 15:15:39;;;;;;;;;6.25;5.00;;;;;18.38;27.56;101740.59;5001801;28;45506;-64
2022/04/03 15:18:04;;;;;;;;;7.75;7.00;;;;;18.29;27.34;101724.91;5001940;28;45571;-65
2022/04/03 15:20:30;;;;;;;;;10.25;10.25;;;;;18.29;27.61;101733.75;5002900;28;45181;-64
2022/04/03 15:22:55;;;;;;;;;6.25;6.25;;;;;18.23;27.53;101746.38;5003175;28;45321;-62
2022/04/03 15:25:21;;;;;;;;;8.25;7.00;;;;;18.15;27.60;101747.47;5003049;28;45294;-63
2022/04/03 15:27:47;;;;;;;;;6.50;6.00;;;;;18.09;27.20;101744.16;5002968;28;45513;-63
2022/04/03 15:30:13;;;;;;;;;6.75;6.75;;;;;17.99;27.26;101744.41;5014371;28;46880;-65
2022/04/03 15:32:38;;;;;;;;;8.50;7.75;;;;;17.87;27.16;101742.06;4993484;28;45436;-63
2022/04/03 15:35:06;;;;;;;;;8.00;7.00;;;;;17.73;27.51;101738.94;5003052;28;45167;-63
2022/04/03 15:37:33;;;;;;;;;6.25;6.00;;;;;17.58;27.87;101738.44;5002957;28;45430;-63
2022/04/03 15:39:59;;;;;;;;;6.25;6.25;;;;;17.49;27.49;101744.88;5002450;28;45298;-63
2022/04/03 15:42:24;;;;;;;;;5.75;5.00;;;;;17.38;27.37;101738.97;5002757;28;45273;-64
2022/04/03 15:44:50;;;;;;;;;5.00;5.00;;;;;17.28;27.56;101735.72;5002725;28;45306;-64
2022/04/03 15:47:16;;;;;;;;;8.50;7.00;;;;;17.22;27.34;101736.75;5002845;28;45399;-63
2022/04/03 15:49:42;;;;;;;;;8.00;8.00;;;;;17.19;27.72;101735.94;5002607;28;46910;-63
2022/04/03 15:52:08;;;;;;;;;9.50;9.00;;;;;17.15;27.55;101737.81;5002807;28;45214;-64
2022/04/03 15:54:34;;;;;;;;;7.25;7.00;;;;;17.11;27.54;101740.59;4984963;28;45256;-63
2022/04/03 15:56:59;;;;;;;;;8.00;6.00;;;;;17.05;27.51;101754.88;5002616;28;45490;-63
2022/04/03 15:59:25;;;;;;;;;6.00;6.00;;;;;16.96;27.67;101741.84;5002093;28;47469;-63
2022/04/03 16:01:52;;;;;;;;;8.50;7.00;;;;;16.84;27.59;101741.22;5002371;28;45350;-63
2022/04/03 16:04:17;;;;;;;;;7.00;7.00;;;;;16.72;27.75;101741.50;5002548;28;45331;-63
2022/04/03 16:06:43;;;;;;;;;7.00;7.00;;;;;16.59;27.69;101735.63;5002427;28;45359;-63
2022/04/03 16:09:08;;;;;;;;;5.50;5.50;;;;;16.45;27.60;101741.22;5000962;28;45603;-63
2022/04/03 16:11:33;;;;;;;;;7.25;7.25;;;;;16.29;27.82;101738.06;5002456;28;45321;-54
2022/04/03 16:13:59;;;;;;;;;6.75;6.75;;;;;16.16;27.49;101749.84;5001949;28;45315;-53
2022/04/03 16:16:25;;;;;;;;;8.25;6.25;;;;;16.00;27.63;101741.34;5001075;28;45504;-52
2022/04/03 16:18:50;;;;;;;;;10.00;7.50;;;;;15.85;27.63;101740.78;5004472;28;46668;-49
2022/04/03 16:21:17;;;;;;;;;8.75;6.50;;;;;15.72;27.90;101744.53;5010969;28;45262;-54
2022/04/03 16:23:43;;;;;;;;;10.25;7.00;;;;;15.56;27.34;101739.53;5013581;28;45294;-54
2022/04/03 16:26:09;;;;;;;;;6.75;6.75;;;;;15.41;27.91;101742.47;5009591;28;45486;-49
2022/04/03 16:28:35;;;;;;;;;8.50;8.50;;;;;15.27;28.10;101740.09;5003570;28;47149;-53
2022/04/03 16:31:00;;;;;;;;;6.50;5.25;;;;;15.11;27.63;101731.53;5002090;28;45417;-52
2022/04/03 16:33:26;;;;;;;;;9.25;7.25;;;;;15.00;27.91;101738.78;5002963;28;45522;-52
2022/04/03 16:35:51;;;;;;;;;10.00;9.75;;;;;14.86;27.74;101728.44;5003209;28;45517;-54
2022/04/03 16:38:18;;;;;;;;;8.75;8.75;;;;;14.80;27.83;101745.25;5000743;28;47948;-52
2022/04/03 16:40:44;;;;;;;;;9.00;7.75;;;;;14.72;27.74;101737.44;5003535;28;45370;-53
2022/04/03 16:43:10;;;;;;;;;8.25;7.25;;;;;14.63;27.93;101727.84;5003847;28;45316;-49
2022/04/03 16:45:37;;;;;;;;;9.00;8.25;;;;;14.55;27.98;101734.16;5003737;28;45416;-54
2022/04/03 16:48:03;;;;;;;;;8.75;7.50;;;;;14.44;28.28;101737.84;5004898;28;47021;-52
2022/04/03 16:50:28;;;;;;;;;4.50;4.50;;;;;14.26;28.29;101727.50;5003985;28;45277;-47
2022/04/03 16:52:54;;;;;;;;;5.50;5.50;;;;;14.25;28.17;101738.97;5005155;28;45420;-51
2022/04/03 16:55:20;;;;;;;;;9.25;7.75;;;;;14.14;27.99;101744.44;5004416;28;45498;-53
2022/04/03 16:57:46;;;;;;;;;8.00;8.00;;;;;14.05;27.98;101747.16;5009077;28;46265;-52
2022/04/03 17:00:13;;;;;;;;;10.00;10.00;;;;;13.98;27.95;101746.38;5005372;28;45464;-52
2022/04/03 17:02:39;;;;;;;;;10.25;8.75;;;;;13.91;27.98;101753.53;5004129;28;45505;-53
2022/04/03 17:05:05;;;;;;;;;8.50;8.50;;;;;13.83;28.05;101750.09;5008763;28;45243;-53
2022/04/03 17:07:34;;;;;;;;;10.50;8.50;;;;;13.75;28.34;101749.31;5009621;28;45452;-54
2022/04/03 17:09:59;;;;;;;;;12.25;8.50;;;;;13.66;28.33;101752.94;5008575;28;45408;-53
2022/04/03 17:12:25;;;;;;;;;8.00;7.50;;;;;13.56;28.16;101751.25;5009120;28;45414;-51
2022/04/03 17:14:50;;;;;;;;;8.25;8.00;;;;;13.46;28.33;101745.22;5004068;28;45559;-51
2022/04/03 17:17:16;;;;;;;;;10.00;10.00;;;;;13.42;28.08;101754.94;5003102;28;45463;-53
2022/04/03 17:19:43;;;;;;;;;12.75;11.00;;;;;13.34;28.03;101756.72;5007759;28;45340;-49
2022/04/03 17:22:11;;;;;;;;;9.75;8.50;;;;;13.29;28.22;101754.13;5001532;28;45267;-51
2022/04/03 17:24:38;;;;;;;;;11.75;10.00;;;;;13.23;28.38;101754.19;5001250;28;45401;-52
2022/04/03 17:27:05;;;;;;;;;14.25;14.25;;;;;13.19;28.62;101751.59;5001127;28;45461;-52
2022/04/03 17:29:31;;;;;;;;;10.50;10.50;;;;;13.20;28.50;101754.22;4999911;28;45358;-54
2022/04/03 17:31:56;;;;;;;;;14.25;13.50;;;;;13.23;28.28;101762.13;5001164;28;45549;-54
2022/04/03 17:34:22;;;;;;;;;12.75;11.00;;;;;13.23;28.54;101759.47;5001725;28;45309;-54
2022/04/03 17:36:47;;;;;;;;;11.00;11.00;;;;;13.25;28.30;101760.31;5001075;28;45596;-55
2022/04/03 17:39:12;;;;;;;;;11.25;9.50;;;;;13.26;28.48;101764.72;5001304;28;45422;-55
2022/04/03 17:41:40;;;;;;;;;12.50;10.50;;;;;13.26;28.51;101761.22;5001071;28;45924;-54
2022/04/03 17:44:07;;;;;;;;;12.00;10.25;;;;;13.22;28.62;101763.00;5001076;28;45274;-55
2022/04/03 17:46:32;;;;;;;;;9.00;9.00;;;;;13.16;28.63;101768.34;5000820;28;45937;-55
2022/04/03 17:48:58;;;;;;;;;12.00;12.00;;;;;13.11;28.49;101765.72;4999759;28;45140;-54
2022/04/03 17:51:26;;;;;;;;;15.50;15.00;;;;;13.00;28.63;101757.03;5001231;28;45432;-53
2022/04/03 17:53:52;;;;;;;;;15.00;14.00;;;;;12.99;28.66;101765.81;5000946;28;45441;-55
2022/04/03 17:56:18;;;;;;;;;11.00;10.50;;;;;12.92;28.76;101765.00;5000097;28;46434;-51
2022/04/03 17:58:43;;;;;;;;;12.75;11.50;;;;;12.84;28.61;101772.97;5000243;28;45536;-54
2022/04/03 18:01:09;;;;;;;;;13.50;13.00;;;;;12.78;28.57;101770.38;4999040;28;45673;-55
2022/04/03 18:03:34;;;;;;;;;13.25;13.25;;;;;12.72;28.62;101766.91;4999952;28;45408;-55
2022/04/03 18:05:59;;;;;;;;;21.00;18.50;;;;;12.63;28.67;101774.00;5004132;28;47211;-55
2022/04/03 18:08:25;;;;;;;;;22.50;21.50;;;;;12.56;28.71;101767.00;5000914;28;45425;-50
2022/04/03 18:11:07;;;;;;;;;24.00;20.75;;;;;12.44;28.62;101764.44;5007863;28;45341;-59
2022/04/03 18:13:37;;;;;;;;;20.50;18.50;;;;;12.38;28.96;101768.00;5006759;28;45348;-53
2022/04/03 18:16:07;;;;;;;;;14.75;13.75;;;;;12.29;28.61;101766.28;5012296;28;46308;-59
2022/04/03 18:18:33;;;;;;;;;19.00;17.25;;;;;12.25;28.99;101768.91;5014120;28;45527;-57
2022/04/03 18:20:59;;;;;;;;;18.00;17.50;;;;;12.17;28.92;101771.59;5018184;28;46325;-58
2022/04/03 18:23:29;;;;;;;;;17.75;15.75;;;;;12.09;28.89;101770.75;5017504;28;45509;-59
2022/04/03 18:25:58;;;;;;;;;20.25;18.75;;;;;11.99;28.92;101768.16;5006727;28;47022;-57
2022/04/03 18:28:28;;;;;;;;;23.25;21.00;;;;;11.94;28.97;101777.81;5011838;28;45261;-57
2022/04/03 18:31:05;;;;;;;;;27.25;22.50;;;;;11.86;28.96;101774.31;5016834;28;45346;-57
2022/04/03 18:33:31;;;;;;;;;14.25;13.75;;;;;11.80;29.07;101784.88;5015669;28;45312;-58
2022/04/03 18:36:01;;;;;;;;;21.50;21.50;;;;;11.73;29.17;101768.19;5009421;28;45449;-56
2022/04/03 18:38:28;;;;;;;;;20.50;17.75;;;;;11.66;29.14;101775.25;5015983;28;45324;-56
2022/04/03 18:40:54;;;;;;;;;19.00;18.75;;;;;11.60;29.32;101777.91;5017589;28;45276;-56
2022/04/03 18:43:19;;;;;;;;;19.50;18.00;;;;;11.55;29.31;101777.03;5012834;28;45364;-55
2022/04/03 18:45:45;;;;;;;;;20.25;19.50;;;;;11.53;29.31;101786.66;5000040;28;45969;-55
2022/04/03 18:48:10;;;;;;;;;21.50;19.50;;;;;11.49;29.39;101787.56;4999941;28;45313;-55
2022/04/03 18:50:37;;;;;;;;;18.75;18.75;;;;;11.42;29.46;101786.72;5000293;28;45347;-56
2022/04/03 18:53:05;;;;;;;;;20.50;19.75;;;;;11.39;29.50;101789.31;4999687;28;45654;-55
2022/04/03 18:55:33;;;;;;;;;17.75;17.75;;;;;11.38;29.39;101792.81;4999860;28;45261;-56
2022/04/03 18:58:00;;;;;;;;;20.00;20.00;;;;;11.35;29.54;101796.34;4999935;28;45748;-56
2022/04/03 19:00:25;;;;;;;;;21.00;20.00;;;;;11.29;29.46;101796.34;4999672;28;45697;-44
2022/04/03 19:02:51;;;;;;;;;19.50;19.00;;;;;11.28;29.62;101796.34;4998117;28;45634;-55
2022/04/03 19:05:16;;;;;;;;;21.25;19.00;;;;;11.26;29.59;101800.72;4998649;28;47039;-59
2022/04/03 19:07:42;;;;;;;;;20.25;19.00;;;;;11.26;29.77;101806.88;4997888;28;45372;-58
2022/04/03 19:10:08;;;;;;;;;21.75;19.00;;;;;11.24;29.72;101806.00;4999366;28;45246;-58
2022/04/03 19:12:39;;;;;;;;;25.00;20.75;;;;;11.21;29.66;101808.63;4999623;28;45311;-58
2022/04/03 19:15:05;;;;;;;;;22.25;22.25;;;;;11.15;29.66;101796.34;4998269;28;46303;-59
2022/04/03 19:17:32;;;;;;;;;21.75;18.75;;;;;11.16;29.81;101802.50;4999345;28;45370;-58
2022/04/03 19:19:58;;;;;;;;;15.25;15.25;;;;;11.12;29.74;101796.34;4999629;28;45480;-59
2022/04/03 19:22:24;;;;;;;;;23.00;20.50;;;;;11.11;29.92;101805.13;4999469;28;45242;-58
2022/04/03 19:24:49;;;;;;;;;17.50;17.25;;;;;11.11;30.02;101801.63;4999353;28;46563;-59
2022/04/03 19:27:15;;;;;;;;;18.75;18.50;;;;;11.09;30.07;101800.72;4999125;28;45305;-59
2022/04/03 19:29:40;;;;;;;;;20.25;19.75;;;;;11.08;29.83;101805.13;4999149;28;45350;-61
2022/04/03 19:32:07;;;;;;;;;22.00;20.00;;;;;11.03;29.99;101796.34;4999197;28;45453;-61
2022/04/03 19:34:34;;;;;;;;;25.75;21.75;;;;;11.03;30.07;101797.22;4997139;28;47305;-61
2022/04/03 19:37:00;;;;;;;;;24.75;22.50;;;;;11.02;30.07;101806.00;4998843;28;45704;-64
2022/04/03 19:39:25;;;;;;;;;25.50;20.75;;;;;11.01;30.09;101808.63;4999299;28;45356;-63
2022/04/03 19:41:51;;;;;;;;;24.75;22.25;;;;;11.00;30.16;101823.50;4997448;28;45427;-64
2022/04/03 19:44:16;;;;;;;;;22.00;22.00;;;;;10.97;30.11;101820.88;4998829;28;47250;-63
2022/04/03 19:46:42;;;;;;;;;28.75;27.00;;;;;10.97;30.05;101834.03;4999350;28;45458;-66
2022/04/03 19:49:07;;;;;;;;;29.00;25.75;;;;;10.97;30.14;101834.03;4999086;28;45566;-63
2022/04/03 19:51:32;;;;;;;;;23.00;23.00;;;;;10.95;30.08;101827.03;4999285;28;45496;-61
2022/04/03 19:53:58;;;;;;;;;28.50;26.50;;;;;10.92;30.05;101825.28;5000917;28;45409;-62
2022/04/03 19:56:24;;;;;;;;;27.25;24.75;;;;;10.92;30.40;101819.13;5001128;28;45548;-63
2022/04/03 19:58:49;;;;;;;;;20.00;20.00;;;;;10.92;30.31;101834.88;5002271;28;45403;-65
2022/04/03 20:01:15;;;;;;;;;29.75;26.50;;;;;10.86;30.34;101822.63;5002252;28;45228;-64
2022/04/03 20:03:40;;;;;;;;;25.00;24.25;;;;;10.88;30.05;101841.94;5002150;28;45983;-64
2022/04/03 20:06:05;;;;;;;;;26.00;25.75;;;;;10.87;30.33;101841.03;5002307;28;45428;-64
2022/04/03 20:08:32;;;;;;;;;31.25;28.50;;;;;10.86;30.29;101838.41;5002515;28;45436;-63
2022/04/03 20:10:57;;;;;;;;;25.75;23.75;;;;;10.84;30.33;101840.13;5002077;28;45257;-64
2022/04/03 20:13:25;;;;;;;;;31.00;29.00;;;;;10.82;30.59;101839.28;5002023;28;45254;-64
2022/04/03 20:15:51;;;;;;;;;31.25;29.00;;;;;10.81;30.48;101840.16;5000934;28;45336;-64
2022/04/03 20:18:16;;;;;;;;;22.50;22.50;;;;;10.78;30.41;101840.13;5002076;28;45337;-64
2022/04/03 20:20:43;;;;;;;;;33.25;31.00;;;;;10.78;30.79;101834.88;5002040;28;45518;-64
2022/04/03 20:23:09;;;;;;;;;33.75;31.75;;;;;10.76;30.52;101832.25;5000841;28;46280;-65
2022/04/03 20:25:35;;;;;;;;;30.75;30.00;;;;;10.73;30.51;101837.50;5001598;28;45310;-63
2022/04/03 20:28:01;;;;;;;;;34.00;33.00;;;;;10.70;30.55;101840.09;5000906;28;45347;-64
2022/04/03 20:30:26;;;;;;;;;34.00;32.00;;;;;10.71;30.62;101848.00;5001870;28;45281;-64
2022/04/03 20:32:52;;;;;;;;;33.50;30.75;;;;;10.68;30.98;101842.75;5002001;28;46189;-64
2022/04/03 20:35:17;;;;;;;;;35.50;30.50;;;;;10.68;30.53;101852.38;5002014;28;45313;-65
2022/04/03 20:37:42;;;;;;;;;35.75;32.50;;;;;10.67;30.85;101850.63;5002025;28;45322;-64
2022/04/03 20:40:08;;;;;;;;;20.75;20.75;;;;;10.64;30.95;101845.34;5001518;28;45501;-64
2022/04/03 20:42:34;;;;;;;;;23.75;23.00;;;;;10.61;30.99;101851.47;5001808;28;47025;-65
2022/04/03 20:44:59;;;;;;;;;26.50;24.50;;;;;10.60;30.71;101854.09;5001562;28;45264;-64
2022/04/03 20:47:25;;;;;;;;;22.75;21.75;;;;;10.56;30.91;101845.31;5002107;28;45337;-65
2022/04/03 20:49:50;;;;;;;;;21.75;20.50;;;;;10.54;31.06;101857.56;5001600;28;45466;-65
2022/04/03 20:52:15;;;;;;;;;24.25;22.00;;;;;10.49;30.90;101860.19;5000424;28;48223;-65
2022/04/03 20:54:41;;;;;;;;;28.50;27.75;;;;;10.44;30.87;101858.41;5001326;28;45464;-65
2022/04/03 20:57:07;;;;;;;;;28.50;26.50;;;;;10.45;31.09;101870.69;5001821;28;45468;-65
2022/04/03 20:59:32;;;;;;;;;20.50;19.75;;;;;10.42;31.25;101868.06;5001394;28;45392;-66
2022/04/03 21:01:57;;;;;;;;;31.00;29.50;;;;;10.37;31.11;101876.78;5001597;28;45333;-66
2022/04/03 21:04:23;;;;;;;;;33.50;31.50;;;;;10.34;31.11;101882.00;5001219;28;45470;-65
2022/04/03 21:06:49;;;;;;;;;29.75;26.00;;;;;10.29;31.23;101873.22;5001687;28;45458;-65
2022/04/03 21:09:14;;;;;;;;;26.75;25.50;;;;;10.27;31.34;101880.19;5001342;28;45327;-65
2022/04/03 21:11:40;;;;;;;;;28.00;27.00;;;;;10.23;31.29;101876.69;5001685;28;45634;-65
2022/04/03 21:14:06;;;;;;;;;25.75;25.75;;;;;10.16;31.30;101874.00;5000924;28;45365;-66
2022/04/03 21:16:32;;;;;;;;;24.25;23.00;;;;;10.12;31.43;101872.25;5000795;28;45189;-63
2022/04/03 21:18:57;;;;;;;;;24.25;24.00;;;;;10.11;31.44;101876.59;5001327;28;45528;-63
2022/04/03 21:21:23;;;;;;;;;26.25;24.50;;;;;10.05;31.80;101871.31;5001142;28;45223;-64
2022/04/03 21:23:51;;;;;;;;;20.50;19.75;;;;;10.02;31.93;101872.19;5000927;28;45271;-63
2022/04/03 21:26:17;;;;;;;;;25.75;23.75;;;;;9.96;31.79;101872.16;5001234;28;45364;-63
2022/04/03 21:28:43;;;;;;;;;23.75;22.00;;;;;9.92;31.92;101873.00;5000847;28;45251;-63
2022/04/03 21:31:08;;;;;;;;;29.50;26.00;;;;;9.88;31.98;101882.59;5001280;28;47241;-63
2022/04/03 21:33:36;;;;;;;;;22.50;22.00;;;;;9.86;32.35;101881.72;5001018;28;45341;-63
2022/04/03 21:36:03;;;;;;;;;24.00;21.50;;;;;9.82;32.12;101879.91;5001397;28;45405;-63
2022/04/03 21:38:28;;;;;;;;;22.75;22.25;;;;;9.79;32.30;101879.91;5001128;28;45604;-64
2022/04/03 21:40:54;;;;;;;;;23.00;21.75;;;;;9.75;32.50;101875.50;5001061;28;45941;-62